createdAt,value
2018-03-26T00:02:05.427Z,16.40
2018-03-26T00:04:33.861Z,15.63
2018-03-26T00:07:01.367Z,17.20
2018-03-26T00:09:29.657Z,15.73
2018-03-26T00:11:57.932Z,16.77
2018-03-26T00:14:26.227Z,16.27
2018-03-26T00:16:53.754Z,16.07
2018-03-26T00:19:22.082Z,16.70
2018-03-26T00:21:49.686Z,17.80
2018-03-26T00:24:17.195Z,15.67
2018-03-26T00:26:45.491Z,14.50
2018-03-26T00:29:13.076Z,15.97
2018-03-26T00:31:40.595Z,17.50
2018-03-26T00:34:08.901Z,16.03
2018-03-26T00:36:36.421Z,16.63
2018-03-26T00:39:03.966Z,16.47
2018-03-26T00:41:31.512Z,17.23
2018-03-26T00:43:59.095Z,18.50
2018-03-26T00:46:27.387Z,18.07
2018-03-26T00:48:54.901Z,19.03
2018-03-26T00:51:22.441Z,20.53
2018-03-26T00:53:50.718Z,19.00
2018-03-26T00:56:18.234Z,21.70
2018-03-26T00:58:45.774Z,20.80
2018-03-26T01:01:13.286Z,20.47
2018-03-26T01:03:40.799Z,20.20
2018-03-26T01:06:08.408Z,20.00
2018-03-26T01:08:35.931Z,19.57
2018-03-26T01:11:03.447Z,20.23
2018-03-26T01:13:30.985Z,20.57
2018-03-26T01:15:58.510Z,21.37
2018-03-26T01:18:26.791Z,19.47
2018-03-26T01:20:55.114Z,18.67
2018-03-26T01:23:23.304Z,20.00
2018-03-26T01:25:50.821Z,18.53
2018-03-26T01:28:19.119Z,19.27
2018-03-26T01:30:46.627Z,18.63
2018-03-26T01:33:14.138Z,18.57
2018-03-26T01:35:41.672Z,18.20
2018-03-26T01:38:09.947Z,17.37
2018-03-26T01:40:37.813Z,15.93
2018-03-26T01:43:05.450Z,17.00
2018-03-26T01:45:33.039Z,16.50
2018-03-26T01:48:01.341Z,15.90
2018-03-26T01:50:28.894Z,17.27
2018-03-26T01:52:56.636Z,15.13
2018-03-26T01:55:24.154Z,15.67
2018-03-26T01:57:51.686Z,16.43
2018-03-26T02:00:19.280Z,16.87
2018-03-26T02:02:47.557Z,16.07
2018-03-26T02:05:15.862Z,16.87
2018-03-26T02:07:43.482Z,16.40
2018-03-26T02:10:10.956Z,14.83
2018-03-26T02:12:39.259Z,17.27
2018-03-26T02:15:06.819Z,19.70
2018-03-26T02:17:35.114Z,19.20
2018-03-26T02:20:02.641Z,19.43
2018-03-26T02:22:30.311Z,19.23
2018-03-26T02:24:59.330Z,20.47
2018-03-26T02:27:27.629Z,20.43
2018-03-26T02:29:55.139Z,19.87
2018-03-26T02:32:22.852Z,19.73
2018-03-26T02:34:50.565Z,21.43
2018-03-26T02:37:18.092Z,20.90
2018-03-26T02:39:45.655Z,19.13
2018-03-26T02:42:13.275Z,20.97
2018-03-26T02:44:40.806Z,21.10
2018-03-26T02:47:08.329Z,20.67
2018-03-26T02:49:36.636Z,20.77
2018-03-26T02:52:04.154Z,20.47
2018-03-26T02:54:32.445Z,19.80
2018-03-26T02:57:00.769Z,18.83
2018-03-26T02:59:28.281Z,19.53
2018-03-26T03:01:56.573Z,19.47
2018-03-26T03:04:24.129Z,20.30
2018-03-26T03:06:52.456Z,20.10
2018-03-26T03:09:20.483Z,21.30
2018-03-26T03:11:48.087Z,20.43
2018-03-26T03:14:15.603Z,21.40
2018-03-26T03:16:43.363Z,20.80
2018-03-26T03:19:10.904Z,20.10
2018-03-26T03:21:38.419Z,19.43
2018-03-26T03:24:06.847Z,18.00
2018-03-26T03:26:34.674Z,18.67
2018-03-26T03:29:02.985Z,17.60
2018-03-26T03:31:30.510Z,18.60
2018-03-26T03:33:58.815Z,18.50
2018-03-26T03:36:27.084Z,17.60
2018-03-26T03:38:54.645Z,17.17
2018-03-26T03:41:22.174Z,18.20
2018-03-26T03:43:49.763Z,17.97
2018-03-26T03:46:18.039Z,17.93
2018-03-26T03:48:45.568Z,19.47
2018-03-26T03:51:13.080Z,19.20
2018-03-26T03:53:41.359Z,19.37
2018-03-26T03:56:08.933Z,17.80
2018-03-26T03:58:37.214Z,19.03
2018-03-26T04:01:05.513Z,16.60
2018-03-26T04:03:33.159Z,18.77
2018-03-26T04:06:01.450Z,18.83
2018-03-26T04:08:29.811Z,18.23
2018-03-26T04:10:57.341Z,18.87
2018-03-26T04:13:25.006Z,18.23
2018-03-26T04:15:52.875Z,20.43
2018-03-26T04:18:20.434Z,20.73
2018-03-26T04:20:47.955Z,20.20
2018-03-26T04:23:16.232Z,19.47
2018-03-26T04:25:45.349Z,20.33
2018-03-26T04:28:12.862Z,19.17
2018-03-26T04:30:40.524Z,20.03
2018-03-26T04:33:08.057Z,21.77
2018-03-26T04:35:35.620Z,21.90
2018-03-26T04:38:03.940Z,21.40
2018-03-26T04:40:31.486Z,22.23
2018-03-26T04:43:00.050Z,23.03
2018-03-26T04:45:28.411Z,20.37
2018-03-26T04:47:55.963Z,22.10
2018-03-26T04:50:23.507Z,21.70
2018-03-26T04:52:51.041Z,21.63
2018-03-26T04:55:18.617Z,19.20
2018-03-26T04:57:46.127Z,19.90
2018-03-26T05:00:13.754Z,20.90
2018-03-26T05:02:41.305Z,22.63
2018-03-26T05:05:08.904Z,20.33
2018-03-26T05:07:38.092Z,22.17
2018-03-26T05:10:05.636Z,20.90
2018-03-26T05:12:33.147Z,21.17
2018-03-26T05:15:00.712Z,21.30
2018-03-26T05:17:29.239Z,21.13
2018-03-26T05:19:56.846Z,20.10
2018-03-26T05:22:24.535Z,22.27
2018-03-26T05:24:52.071Z,21.77
2018-03-26T05:27:19.582Z,19.67
2018-03-26T05:29:47.910Z,22.00
2018-03-26T05:32:15.503Z,20.57
2018-03-26T05:34:43.094Z,20.13
2018-03-26T05:37:11.367Z,20.93
2018-03-26T05:39:40.158Z,23.00
2018-03-26T05:42:08.604Z,22.60
2018-03-26T05:44:36.130Z,21.53
2018-03-26T05:47:04.528Z,22.33
2018-03-26T05:49:32.533Z,22.30
2018-03-26T05:52:00.139Z,22.80
2018-03-26T05:54:28.479Z,26.33
2018-03-26T05:56:56.002Z,24.90
2018-03-26T05:59:24.304Z,22.77
2018-03-26T06:01:51.864Z,23.97
2018-03-26T06:04:19.396Z,24.67
2018-03-26T06:06:47.670Z,25.97
2018-03-26T06:09:15.239Z,24.60
2018-03-26T06:11:42.983Z,24.80
2018-03-26T06:14:10.500Z,23.83
2018-03-26T06:16:54.894Z,24.63
2018-03-26T06:19:22.420Z,24.93
2018-03-26T06:21:49.945Z,25.80
2018-03-26T06:24:18.271Z,23.63
2018-03-26T06:26:45.814Z,23.77
2018-03-26T06:29:14.103Z,23.23
2018-03-26T06:31:41.631Z,23.97
2018-03-26T06:34:09.934Z,23.73
2018-03-26T06:36:43.248Z,24.07
2018-03-26T06:39:27.446Z,23.17
2018-03-26T06:41:54.976Z,24.40
2018-03-26T06:44:22.495Z,22.00
2018-03-26T06:46:50.774Z,23.27
2018-03-26T06:49:19.138Z,24.40
2018-03-26T06:51:47.439Z,23.07
2018-03-26T06:54:15.730Z,25.33
2018-03-26T06:56:43.320Z,23.93
2018-03-26T06:59:10.832Z,23.03
2018-03-26T07:01:39.866Z,22.40
2018-03-26T07:04:07.398Z,23.57
2018-03-26T07:06:34.926Z,23.40
2018-03-26T07:09:02.440Z,23.47
2018-03-26T07:11:31.682Z,24.10
2018-03-26T07:13:59.196Z,24.97
2018-03-26T07:16:27.495Z,26.43
2018-03-26T07:18:55.858Z,25.60
2018-03-26T07:21:23.409Z,22.47
2018-03-26T07:23:50.931Z,25.67
2018-03-26T07:26:25.185Z,25.50
2018-03-26T07:28:54.361Z,24.83
2018-03-26T07:31:21.898Z,24.50
2018-03-26T07:33:49.477Z,23.97
2018-03-26T07:36:17.062Z,24.47
2018-03-26T07:38:44.590Z,26.40
2018-03-26T07:41:12.978Z,25.73
2018-03-26T07:43:40.472Z,25.73
2018-03-26T07:46:07.984Z,25.70
2018-03-26T07:48:35.526Z,25.63
2018-03-26T07:51:03.094Z,25.00
2018-03-26T07:53:32.153Z,25.47
2018-03-26T07:55:59.947Z,26.57
2018-03-26T07:58:27.485Z,26.90
2018-03-26T08:00:54.993Z,25.57
2018-03-26T08:03:23.316Z,28.33
2018-03-26T08:05:50.943Z,28.80
2018-03-26T08:08:18.474Z,29.40
2018-03-26T08:10:46.035Z,28.93
2018-03-26T08:13:13.564Z,28.07
2018-03-26T08:15:41.837Z,28.77
2018-03-26T08:18:10.149Z,30.63
2018-03-26T08:20:37.671Z,28.43
2018-03-26T08:23:05.410Z,28.00
2018-03-26T08:25:33.731Z,28.97
2018-03-26T08:28:01.255Z,27.30
2018-03-26T08:30:29.543Z,28.97
2018-03-26T08:32:57.077Z,28.27
2018-03-26T08:35:24.585Z,28.17
2018-03-26T08:37:52.219Z,28.57
2018-03-26T08:40:19.755Z,28.87
2018-03-26T08:42:47.270Z,29.97
2018-03-26T08:45:14.789Z,30.40
2018-03-26T08:47:42.351Z,31.93
2018-03-26T08:50:10.072Z,29.73
2018-03-26T08:52:38.405Z,29.37
2018-03-26T08:55:06.066Z,31.07
2018-03-26T08:57:33.582Z,30.73
2018-03-26T09:00:02.609Z,28.83
2018-03-26T09:02:31.168Z,29.30
2018-03-26T09:04:58.803Z,30.93
2018-03-26T09:07:26.771Z,30.40
2018-03-26T09:09:55.056Z,30.00
2018-03-26T09:12:24.118Z,30.93
2018-03-26T09:14:52.398Z,32.30
2018-03-26T09:17:20.719Z,30.87
2018-03-26T09:19:48.234Z,30.27
2018-03-26T09:22:16.538Z,29.03
2018-03-26T09:24:44.138Z,28.33
2018-03-26T09:27:11.703Z,32.70
2018-03-26T09:29:39.234Z,31.43
2018-03-26T09:32:06.859Z,30.70
2018-03-26T09:34:34.382Z,28.67
2018-03-26T09:37:01.908Z,31.67
2018-03-26T09:39:30.216Z,29.03
2018-03-26T09:41:57.723Z,29.83
2018-03-26T09:44:25.259Z,28.13
2018-03-26T09:46:52.914Z,28.70
2018-03-26T09:49:20.434Z,28.50
2018-03-26T09:51:48.711Z,30.53
2018-03-26T09:54:17.131Z,27.73
2018-03-26T09:56:45.398Z,31.53
2018-03-26T09:59:13.681Z,30.80
2018-03-26T10:02:02.724Z,30.10
2018-03-26T10:04:31.037Z,28.17
2018-03-26T10:06:58.557Z,28.27
2018-03-26T10:09:26.104Z,28.53
2018-03-26T10:11:53.659Z,30.87
2018-03-26T10:14:21.181Z,30.17
2018-03-26T10:16:49.496Z,28.93
2018-03-26T10:19:17.013Z,33.80
2018-03-26T10:21:45.290Z,30.13
2018-03-26T10:24:13.626Z,31.27
2018-03-26T10:26:41.147Z,30.77
2018-03-26T10:29:09.422Z,31.27
2018-03-26T10:31:36.964Z,30.23
2018-03-26T10:34:04.487Z,29.90
2018-03-26T10:36:32.034Z,32.43
2018-03-26T10:38:59.583Z,30.77
2018-03-26T10:41:27.103Z,33.43
2018-03-26T10:43:54.622Z,31.03
2018-03-26T10:46:22.929Z,30.13
2018-03-26T10:48:50.466Z,31.67
2018-03-26T10:51:18.864Z,33.33
2018-03-26T10:53:46.396Z,28.93
2018-03-26T10:56:14.753Z,32.13
2018-03-26T10:58:42.275Z,32.63
2018-03-26T11:01:09.822Z,32.23
2018-03-26T11:03:38.146Z,33.27
2018-03-26T11:06:05.670Z,30.97
2018-03-26T11:08:33.980Z,31.63
2018-03-26T11:11:01.520Z,31.60
2018-03-26T11:13:29.055Z,33.27
2018-03-26T11:15:56.607Z,32.57
2018-03-26T11:18:24.127Z,33.80
2018-03-26T11:20:51.638Z,32.27
2018-03-26T11:23:19.162Z,32.60
2018-03-26T11:25:46.687Z,30.13
2018-03-26T11:28:15.027Z,32.57
2018-03-26T11:30:42.597Z,31.27
2018-03-26T11:33:10.100Z,30.10
2018-03-26T11:35:38.391Z,30.83
2018-03-26T11:38:06.691Z,31.23
2018-03-26T11:40:34.219Z,31.40
2018-03-26T11:43:02.503Z,30.37
2018-03-26T11:45:30.811Z,33.57
2018-03-26T11:47:58.335Z,33.53
2018-03-26T11:50:26.985Z,33.80
2018-03-26T11:52:54.526Z,31.43
2018-03-26T11:55:22.823Z,30.80
2018-03-26T11:57:50.538Z,30.87
2018-03-26T12:00:19.633Z,31.90
2018-03-26T12:02:47.263Z,31.90
2018-03-26T12:05:14.851Z,33.13
2018-03-26T12:07:42.438Z,32.87
2018-03-26T12:10:10.734Z,31.07
2018-03-26T12:12:38.326Z,30.90
2018-03-26T12:15:05.908Z,30.97
2018-03-26T12:17:33.472Z,31.97
2018-03-26T12:20:12.918Z,30.27
2018-03-26T12:22:40.444Z,32.03
2018-03-26T12:25:11.567Z,29.87
2018-03-26T12:27:51.863Z,30.50
2018-03-26T12:30:20.114Z,30.03
2018-03-26T12:32:48.411Z,29.27
2018-03-26T12:35:27.874Z,27.63
2018-03-26T12:37:55.387Z,29.07
2018-03-26T12:40:34.703Z,26.57
2018-03-26T12:43:02.258Z,28.07
2018-03-26T12:45:41.619Z,26.57
2018-03-26T12:48:09.141Z,27.53
2018-03-26T12:50:48.716Z,27.47
2018-03-26T12:53:16.292Z,27.50
2018-03-26T12:55:44.591Z,26.13
2018-03-26T12:58:24.183Z,28.20
2018-03-26T13:01:15.574Z,27.87
2018-03-26T13:03:43.138Z,26.43
2018-03-26T13:06:10.663Z,27.40
2018-03-26T13:08:38.945Z,26.23
2018-03-26T13:11:07.266Z,26.13
2018-03-26T13:13:34.771Z,27.67
2018-03-26T13:16:02.296Z,25.53
2018-03-26T13:18:29.851Z,25.10
2018-03-26T13:20:57.401Z,24.60
2018-03-26T13:23:24.910Z,22.90
2018-03-26T13:25:52.449Z,22.83
2018-03-26T13:28:19.966Z,21.00
2018-03-26T13:30:48.251Z,20.13
2018-03-26T13:33:16.586Z,19.13
2018-03-26T13:35:44.207Z,19.40
2018-03-26T13:38:11.738Z,20.23
2018-03-26T13:40:39.286Z,21.47
2018-03-26T13:43:06.812Z,21.83
2018-03-26T13:45:34.325Z,21.37
2018-03-26T13:48:01.862Z,20.67
2018-03-26T13:50:29.431Z,21.70
2018-03-26T13:52:56.951Z,21.87
2018-03-26T13:55:25.254Z,21.53
2018-03-26T13:57:52.774Z,22.47
2018-03-26T14:00:20.476Z,22.90
2018-03-26T14:02:48.028Z,23.00
2018-03-26T14:05:16.305Z,23.37
2018-03-26T14:07:44.583Z,23.30
2018-03-26T14:10:24.945Z,25.17
2018-03-26T14:13:05.054Z,23.67
2018-03-26T14:15:44.636Z,22.80
2018-03-26T14:18:12.931Z,23.70
2018-03-26T14:20:40.508Z,23.63
2018-03-26T14:23:08.071Z,22.07
2018-03-26T14:25:35.595Z,22.53
2018-03-26T14:28:04.618Z,21.77
2018-03-26T14:30:33.059Z,22.93
2018-03-26T14:33:00.574Z,21.07
2018-03-26T14:35:43.089Z,21.57
2018-03-26T14:38:10.620Z,22.23
2018-03-26T14:40:38.913Z,21.30
2018-03-26T14:43:06.516Z,22.27
2018-03-26T14:45:34.035Z,21.50
2018-03-26T14:48:01.591Z,22.10
2018-03-26T14:50:29.197Z,20.53
2018-03-26T14:52:56.726Z,20.03
2018-03-26T14:55:25.092Z,20.83
2018-03-26T14:57:52.651Z,20.57
2018-03-26T15:00:20.174Z,19.37
2018-03-26T15:02:47.710Z,19.33
2018-03-26T15:05:15.290Z,19.83
2018-03-26T15:07:42.798Z,20.40
2018-03-26T15:10:10.327Z,20.00
2018-03-26T15:12:37.859Z,19.67
2018-03-26T15:15:06.149Z,18.77
2018-03-26T15:17:34.441Z,20.17
2018-03-26T15:20:01.975Z,19.80
2018-03-26T15:22:29.491Z,20.73
2018-03-26T15:24:57.022Z,21.03
2018-03-26T15:27:24.578Z,20.87
2018-03-26T15:29:52.140Z,20.57
2018-03-26T15:32:20.436Z,21.77
2018-03-26T15:34:48.043Z,21.53
2018-03-26T15:37:15.609Z,23.67
2018-03-26T15:39:43.151Z,22.20
2018-03-26T15:42:10.712Z,22.37
2018-03-26T15:44:38.227Z,20.60
2018-03-26T15:47:05.754Z,21.83
2018-03-26T15:49:33.602Z,22.70
2018-03-26T15:52:01.114Z,22.50
2018-03-26T15:54:28.639Z,23.07
2018-03-26T15:56:56.175Z,23.07
2018-03-26T15:59:24.554Z,23.33
2018-03-26T16:01:51.622Z,23.33
2018-03-26T16:04:19.930Z,24.10
2018-03-26T16:06:47.476Z,22.73
2018-03-26T16:09:15.077Z,21.90
2018-03-26T16:11:42.718Z,22.87
2018-03-26T16:14:10.222Z,24.47
2018-03-26T16:16:37.727Z,25.10
2018-03-26T16:19:06.031Z,24.03
2018-03-26T16:21:33.543Z,25.43
2018-03-26T16:24:01.066Z,24.80
2018-03-26T16:26:28.614Z,25.10
2018-03-26T16:28:56.183Z,24.07
2018-03-26T16:31:23.699Z,25.93
2018-03-26T16:33:52.760Z,26.40
2018-03-26T16:36:20.282Z,25.57
2018-03-26T16:38:48.560Z,25.40
2018-03-26T16:41:28.956Z,26.17
2018-03-26T16:43:56.468Z,25.50
2018-03-26T16:46:23.994Z,25.77
2018-03-26T16:48:51.546Z,24.87
2018-03-26T16:51:19.057Z,25.47
2018-03-26T16:53:46.619Z,26.83
2018-03-26T16:56:14.168Z,25.20
2018-03-26T16:58:41.686Z,25.83
2018-03-26T17:01:09.214Z,25.87
2018-03-26T17:03:38.282Z,25.67
2018-03-26T17:06:05.804Z,25.80
2018-03-26T17:08:34.093Z,26.27
2018-03-26T17:11:02.456Z,24.53
2018-03-26T17:13:29.910Z,25.40
2018-03-26T17:15:58.211Z,28.50
2018-03-26T17:18:26.502Z,27.90
2018-03-26T17:20:54.011Z,26.43
2018-03-26T17:23:21.533Z,27.57
2018-03-26T17:25:49.082Z,26.50
2018-03-26T17:28:16.618Z,25.93
2018-03-26T17:30:44.147Z,23.73
2018-03-26T17:33:11.717Z,23.80
2018-03-26T17:35:39.239Z,22.33
2018-03-26T17:38:06.764Z,22.60
2018-03-26T17:40:34.593Z,22.73
2018-03-26T17:43:02.122Z,22.03
2018-03-26T17:45:29.643Z,22.63
2018-03-26T17:47:57.201Z,23.53
2018-03-26T17:50:24.727Z,22.70
2018-03-26T17:52:53.007Z,23.37
2018-03-26T17:55:21.305Z,22.93
2018-03-26T17:57:48.832Z,22.00
2018-03-26T18:00:16.978Z,22.87
2018-03-26T18:02:44.534Z,23.67
2018-03-26T18:05:12.091Z,21.53
2018-03-26T18:07:39.619Z,21.57
2018-03-26T18:10:07.976Z,22.00
2018-03-26T18:12:35.454Z,21.63
2018-03-26T18:15:03.762Z,21.80
2018-03-26T18:17:32.066Z,21.27
2018-03-26T18:19:59.567Z,20.27
2018-03-26T18:22:27.163Z,22.30
2018-03-26T18:24:55.459Z,20.27
2018-03-26T18:27:23.733Z,20.27
2018-03-26T18:29:52.267Z,20.60
2018-03-26T18:32:19.818Z,18.87
2018-03-26T18:34:47.342Z,20.60
2018-03-26T18:37:15.638Z,20.23
2018-03-26T18:39:43.214Z,20.47
2018-03-26T18:42:10.726Z,20.63
2018-03-26T18:44:38.236Z,20.90
2018-03-26T18:47:05.772Z,20.30
2018-03-26T18:49:34.058Z,20.13
2018-03-26T18:52:02.383Z,19.93
2018-03-26T18:54:29.999Z,19.80
2018-03-26T18:56:58.328Z,21.03
2018-03-26T18:59:25.944Z,22.33
2018-03-26T19:01:53.494Z,21.77
2018-03-26T19:04:21.024Z,23.47
2018-03-26T19:06:48.637Z,23.40
2018-03-26T19:09:16.959Z,23.87
2018-03-26T19:11:44.483Z,22.73
2018-03-26T19:14:12.811Z,23.13
2018-03-26T19:16:40.401Z,22.63
2018-03-26T19:19:07.901Z,25.33
2018-03-26T19:21:35.461Z,24.73
2018-03-26T19:24:03.023Z,25.23
2018-03-26T19:26:30.549Z,24.47
2018-03-26T19:28:58.084Z,25.97
2018-03-26T19:31:25.606Z,25.10
2018-03-26T19:33:53.908Z,25.73
2018-03-26T19:36:22.191Z,24.57
2018-03-26T19:38:50.499Z,25.27
2018-03-26T19:41:18.085Z,24.97
2018-03-26T19:43:45.634Z,23.37
2018-03-26T19:46:13.211Z,25.70
2018-03-26T19:48:43.033Z,25.50
2018-03-26T19:51:10.747Z,25.07
2018-03-26T19:53:39.062Z,28.10
2018-03-26T19:56:06.581Z,26.30
2018-03-26T19:58:34.118Z,27.40
2018-03-26T20:01:01.745Z,25.90
2018-03-26T20:03:29.270Z,26.63
2018-03-26T20:05:56.794Z,29.27
2018-03-26T20:08:24.407Z,28.57
2018-03-26T20:10:52.742Z,27.80
2018-03-26T20:13:20.438Z,27.90
2018-03-26T20:15:48.913Z,28.30
2018-03-26T20:18:16.696Z,28.97
2018-03-26T20:20:44.361Z,26.97
2018-03-26T20:23:12.875Z,28.83
2018-03-26T20:25:40.442Z,28.70
2018-03-26T20:28:08.735Z,28.30
2018-03-26T20:30:37.044Z,29.10
2018-03-26T20:33:04.575Z,28.70
2018-03-26T20:35:32.850Z,28.43
2018-03-26T20:38:01.909Z,29.67
2018-03-26T20:40:29.740Z,28.60
2018-03-26T20:42:58.017Z,29.23
2018-03-26T20:45:26.362Z,29.03
2018-03-26T20:47:53.902Z,27.70
2018-03-26T20:50:21.441Z,30.10
2018-03-26T20:52:48.987Z,28.20
2018-03-26T20:55:16.733Z,30.03
2018-03-26T20:57:45.027Z,28.30
2018-03-26T21:00:13.322Z,29.50
2018-03-26T21:02:41.602Z,28.27
2018-03-26T21:05:09.133Z,30.40
2018-03-26T21:07:38.182Z,29.63
2018-03-26T21:10:05.806Z,28.07
2018-03-26T21:12:33.346Z,27.93
2018-03-26T21:15:00.886Z,29.37
2018-03-26T21:17:28.389Z,28.70
2018-03-26T21:19:56.745Z,28.80
2018-03-26T21:22:24.281Z,25.80
2018-03-26T21:24:51.807Z,25.80
2018-03-26T21:27:19.423Z,26.83
2018-03-26T21:29:47.235Z,27.50
2018-03-26T21:32:14.771Z,27.60
2018-03-26T21:34:42.279Z,29.33
2018-03-26T21:37:09.802Z,28.63
2018-03-26T21:39:37.322Z,28.33
2018-03-26T21:42:05.682Z,28.77
2018-03-26T21:44:33.256Z,28.43
2018-03-26T21:47:01.529Z,28.40
2018-03-26T21:49:29.810Z,28.73
2018-03-26T21:51:58.123Z,29.00
2018-03-26T21:54:25.659Z,28.53
2018-03-26T21:56:53.963Z,27.97
2018-03-26T21:59:21.513Z,28.30
2018-03-26T22:01:49.802Z,28.60
2018-03-26T22:04:18.089Z,29.60
2018-03-26T22:06:46.452Z,28.93
2018-03-26T22:09:13.961Z,28.77
2018-03-26T22:11:41.574Z,27.53
2018-03-26T22:16:38.912Z,30.50
2018-03-26T22:19:07.254Z,28.33
2018-03-26T22:21:35.547Z,28.50
2018-03-26T22:24:03.891Z,29.77
2018-03-26T22:26:32.181Z,30.93
2018-03-26T22:28:59.700Z,29.23
2018-03-26T22:31:28.154Z,29.43
2018-03-26T22:33:56.446Z,29.50
2018-03-26T22:36:23.970Z,29.30
2018-03-26T22:38:51.506Z,29.17
2018-03-26T22:41:19.031Z,27.53
2018-03-26T22:43:47.331Z,29.23
2018-03-26T22:46:14.883Z,27.60
2018-03-26T22:48:43.166Z,31.40
2018-03-26T22:51:10.706Z,30.10
2018-03-26T22:53:39.105Z,28.90
2018-03-26T22:56:07.389Z,29.07
2018-03-26T22:58:35.677Z,31.43
2018-03-26T23:01:03.214Z,29.63
2018-03-26T23:03:31.539Z,29.43
2018-03-26T23:05:59.052Z,30.20
2018-03-26T23:08:26.587Z,32.17
2018-03-26T23:10:54.095Z,30.87
2018-03-26T23:13:22.459Z,32.80
2018-03-26T23:15:50.138Z,32.50
2018-03-26T23:18:18.411Z,28.30
2018-03-26T23:20:45.931Z,31.33
2018-03-26T23:23:13.487Z,31.47
2018-03-26T23:25:41.030Z,31.23
2018-03-26T23:28:09.325Z,31.33
2018-03-26T23:30:36.870Z,31.33
2018-03-26T23:33:05.154Z,30.80
2018-03-26T23:35:33.447Z,32.77
2018-03-26T23:38:01.003Z,31.53
2018-03-26T23:40:28.535Z,29.70
2018-03-26T23:42:56.056Z,30.60
2018-03-26T23:45:23.615Z,32.03
2018-03-26T23:47:51.319Z,32.27
2018-03-26T23:50:18.829Z,31.37
2018-03-26T23:52:47.155Z,31.60
2018-03-26T23:55:14.668Z,30.37
2018-03-26T23:57:42.963Z,32.87
